createdAt,value
2022-11-22T00:00:55.050Z,52.33
2022-11-22T00:03:22.649Z,45.03
2022-11-22T00:05:50.151Z,54.15
2022-11-22T00:08:18.105Z,39.72
2022-11-22T00:10:45.686Z,28.48
2022-11-22T00:13:13.198Z,25.35
2022-11-22T00:15:40.745Z,15.18
2022-11-22T00:18:08.489Z,14.15
2022-11-22T00:20:36.134Z,13.03
2022-11-22T00:23:03.874Z,13.02
2022-11-22T00:25:31.533Z,19.73
2022-11-22T00:27:59.158Z,22.00
2022-11-22T00:30:26.671Z,32.17
2022-11-22T00:32:54.276Z,30.10
2022-11-22T00:35:22.905Z,26.13
2022-11-22T00:40:18.059Z,17.52
2022-11-22T00:42:45.854Z,15.57
2022-11-22T00:45:13.910Z,14.32
2022-11-22T00:47:41.432Z,15.23
2022-11-22T00:50:10.903Z,14.98
2022-11-22T00:52:38.568Z,23.00
2022-11-22T00:55:06.894Z,25.20
2022-11-22T00:57:39.358Z,89.43
2022-11-22T01:00:08.008Z,70.18
2022-11-22T01:05:03.626Z,90.82
2022-11-22T01:07:31.259Z,70.00
2022-11-22T01:09:58.824Z,69.55
2022-11-22T01:12:26.439Z,66.78
2022-11-22T01:14:53.996Z,43.80
2022-11-22T01:17:21.748Z,42.03
2022-11-22T01:22:17.525Z,39.85
2022-11-22T01:24:45.097Z,40.10
2022-11-22T01:27:12.666Z,47.75
2022-11-22T01:29:40.304Z,44.65
2022-11-22T01:32:07.950Z,46.53
2022-11-22T01:34:36.927Z,32.60
2022-11-22T01:37:04.916Z,26.10
2022-11-22T01:39:33.031Z,28.73
2022-11-22T01:42:00.790Z,42.58
2022-11-22T01:44:32.477Z,33.10
2022-11-22T01:47:13.123Z,29.92
2022-11-22T01:49:57.048Z,19.80
2022-11-22T01:52:31.934Z,17.20
2022-11-22T01:55:11.819Z,17.08
2022-11-22T01:57:44.930Z,17.95
2022-11-22T02:00:18.790Z,15.70
2022-11-22T02:02:55.451Z,18.65
2022-11-22T02:05:27.745Z,84.97
2022-11-22T02:08:17.043Z,43.88
2022-11-22T02:10:49.917Z,188.43
2022-11-22T02:13:21.842Z,160.00
2022-11-22T02:15:52.929Z,84.63
2022-11-22T02:18:21.555Z,41.63
2022-11-22T02:23:38.261Z,27.90
2022-11-22T02:26:06.949Z,38.20
2022-11-22T02:31:05.842Z,44.22
2022-11-22T02:33:33.617Z,60.78
2022-11-22T02:36:01.411Z,83.60
2022-11-22T02:38:35.753Z,132.37
2022-11-22T02:41:10.920Z,48.53
2022-11-22T02:43:43.825Z,42.70
2022-11-22T02:46:23.459Z,32.30
2022-11-22T02:48:51.442Z,32.08
2022-11-22T02:51:20.036Z,15.07
2022-11-22T02:53:50.808Z,33.47
2022-11-22T02:56:20.361Z,30.17
2022-11-22T02:58:48.002Z,30.20
2022-11-22T03:01:15.642Z,13.57
2022-11-22T03:03:44.009Z,41.00
2022-11-22T03:06:11.650Z,59.25
2022-11-22T03:08:39.351Z,62.40
2022-11-22T03:11:07.124Z,131.30
2022-11-22T03:13:34.601Z,59.92
2022-11-22T03:16:02.264Z,45.75
2022-11-22T03:18:30.019Z,59.15
2022-11-22T03:21:03.861Z,58.03
2022-11-22T03:23:32.330Z,42.00
2022-11-22T03:26:00.110Z,40.78
2022-11-22T03:28:27.715Z,28.77
2022-11-22T03:30:55.419Z,31.38
2022-11-22T03:33:23.000Z,21.30
2022-11-22T03:35:50.670Z,19.00
2022-11-22T03:38:19.338Z,17.17
2022-11-22T03:40:47.059Z,54.58
2022-11-22T03:43:14.612Z,27.73
2022-11-22T03:45:47.319Z,19.70
2022-11-22T03:48:15.180Z,17.05
2022-11-22T03:50:43.866Z,17.23
2022-11-22T03:58:07.842Z,15.80
2022-11-22T04:00:37.107Z,25.92
2022-11-22T04:03:04.681Z,25.20
2022-11-22T04:05:32.194Z,23.50
2022-11-22T04:07:59.827Z,25.10
2022-11-22T04:10:27.769Z,26.25
2022-11-22T04:12:59.738Z,28.67
2022-11-22T04:15:28.001Z,51.63
2022-11-22T04:17:55.582Z,34.08
2022-11-22T04:20:44.453Z,38.50
2022-11-22T04:23:18.926Z,20.95
2022-11-22T04:25:53.373Z,23.15
2022-11-22T04:29:08.015Z,35.58
2022-11-22T04:31:33.148Z,22.30
2022-11-22T04:34:00.739Z,16.65
2022-11-22T04:36:28.353Z,15.25
2022-11-22T04:38:55.826Z,17.20
2022-11-22T04:41:23.537Z,15.98
2022-11-22T04:44:09.520Z,17.80
2022-11-22T04:46:37.168Z,63.03
2022-11-22T04:49:04.688Z,60.20
2022-11-22T04:51:51.330Z,66.88
2022-11-22T04:54:18.944Z,108.28
2022-11-22T04:56:46.636Z,110.00
2022-11-22T04:59:14.239Z,119.20
2022-11-22T05:01:41.824Z,72.75
2022-11-22T05:04:09.560Z,69.07
2022-11-22T05:06:38.679Z,51.83
2022-11-22T05:09:06.360Z,41.45
2022-11-22T05:11:34.936Z,26.03
2022-11-22T05:14:03.945Z,24.35
2022-11-22T05:16:31.510Z,22.45
2022-11-22T05:18:59.405Z,23.23
2022-11-22T05:21:29.313Z,24.00
2022-11-22T05:23:57.292Z,22.45
2022-11-22T05:26:29.026Z,23.65
2022-11-22T05:28:58.287Z,21.92
2022-11-22T05:31:27.763Z,21.75
2022-11-22T05:33:57.603Z,18.90
2022-11-22T05:36:25.986Z,11.68
2022-11-22T05:38:54.311Z,8.80
2022-11-22T05:41:22.011Z,13.43
2022-11-22T05:43:49.721Z,9.97
2022-11-22T05:46:25.017Z,12.70
2022-11-22T05:48:56.168Z,12.48
2022-11-22T05:51:34.643Z,12.95
2022-11-22T05:54:03.456Z,11.13
2022-11-22T05:56:31.093Z,14.23
2022-11-22T05:58:58.863Z,19.63
2022-11-22T06:01:26.695Z,12.18
2022-11-22T06:03:54.917Z,7.97
2022-11-22T06:06:22.577Z,7.38
2022-11-22T06:08:51.256Z,31.48
2022-11-22T06:13:56.297Z,5.88
2022-11-22T06:16:24.241Z,8.05
2022-11-22T06:18:54.025Z,13.50
2022-11-22T06:21:25.660Z,15.90
2022-11-22T06:23:55.337Z,18.60
2022-11-22T06:26:24.350Z,7.78
2022-11-22T06:28:54.361Z,9.18
2022-11-22T06:31:28.222Z,8.95
2022-11-22T06:33:59.698Z,7.32
2022-11-22T06:36:31.704Z,10.77
2022-11-22T06:38:59.921Z,23.77
2022-11-22T06:41:35.932Z,23.40
2022-11-22T06:44:07.664Z,90.40
2022-11-22T06:46:36.968Z,132.07
2022-11-22T06:49:05.075Z,50.00
2022-11-22T06:51:32.989Z,28.67
2022-11-22T06:54:00.657Z,116.35
2022-11-22T06:56:32.607Z,74.40
2022-11-22T06:59:04.232Z,100.35
2022-11-22T07:01:33.912Z,97.78
2022-11-22T07:04:03.192Z,84.25
2022-11-22T07:06:34.653Z,96.07
2022-11-22T07:09:06.518Z,58.58
2022-11-22T07:11:36.314Z,35.70
2022-11-22T07:14:08.603Z,25.20
2022-11-22T07:16:39.072Z,19.45
2022-11-22T07:19:07.580Z,13.27
2022-11-22T07:21:37.479Z,112.72
2022-11-22T07:24:07.108Z,61.17
2022-11-22T07:26:35.043Z,21.38
2022-11-22T07:29:03.002Z,95.55
2022-11-22T07:31:30.695Z,47.33
2022-11-22T07:33:58.622Z,40.67
2022-11-22T07:36:29.779Z,21.60
2022-11-22T07:38:59.339Z,13.07
2022-11-22T07:41:27.408Z,9.23
2022-11-22T07:43:55.675Z,7.85
2022-11-22T07:46:29.260Z,12.95
2022-11-22T07:48:58.219Z,8.63
2022-11-22T07:51:26.885Z,13.48
2022-11-22T07:53:56.448Z,6.95
2022-11-22T07:56:24.066Z,6.03
2022-11-22T07:58:51.947Z,17.43
2022-11-22T08:01:21.004Z,8.70
2022-11-22T08:03:49.330Z,7.03
2022-11-22T08:06:16.996Z,7.53
2022-11-22T08:08:45.006Z,6.63
2022-11-22T08:11:12.972Z,6.40
2022-11-22T08:13:41.278Z,6.78
2022-11-22T08:16:15.348Z,10.48
2022-11-22T08:18:49.129Z,9.40
2022-11-22T08:21:18.987Z,13.15
2022-11-22T08:23:48.558Z,10.07
2022-11-22T08:26:18.435Z,9.98
2022-11-22T08:28:46.352Z,10.93
2022-11-22T08:31:20.638Z,7.50
2022-11-22T08:33:48.893Z,8.40
2022-11-22T08:36:16.531Z,6.88
2022-11-22T08:38:44.194Z,8.40
2022-11-22T08:41:11.982Z,12.17
2022-11-22T08:43:39.549Z,11.88
2022-11-22T08:46:07.423Z,8.67
2022-11-22T08:48:37.118Z,16.52
2022-11-22T08:51:08.249Z,12.50
2022-11-22T08:53:43.185Z,14.40
2022-11-22T08:56:17.052Z,12.82
2022-11-22T08:58:46.372Z,17.17
2022-11-22T09:01:17.714Z,12.27
2022-11-22T09:03:45.892Z,11.98
2022-11-22T09:09:30.040Z,8.18
2022-11-22T09:11:55.454Z,11.43
2022-11-22T09:14:23.123Z,10.57
2022-11-22T09:16:50.805Z,9.37
2022-11-22T09:19:20.170Z,11.23
2022-11-22T09:21:47.689Z,22.75
2022-11-22T09:24:15.505Z,21.63
2022-11-22T09:26:43.226Z,18.77
2022-11-22T09:29:11.791Z,16.20
2022-11-22T09:34:07.874Z,34.35
2022-11-22T09:36:35.764Z,28.75
2022-11-22T09:41:58.559Z,20.55
2022-11-22T09:44:44.858Z,23.08
2022-11-22T09:48:09.420Z,48.85
2022-11-22T09:50:57.689Z,47.83
2022-11-22T09:53:52.836Z,33.78
2022-11-22T09:56:27.009Z,73.07
2022-11-22T09:59:06.769Z,59.45
2022-11-22T10:01:45.694Z,69.00
2022-11-22T10:04:27.299Z,39.25
2022-11-22T10:07:38.676Z,45.58
2022-11-22T10:10:24.775Z,41.50
2022-11-22T10:13:19.909Z,51.85
2022-11-22T10:16:03.276Z,41.90
2022-11-22T10:18:48.778Z,65.10
2022-11-22T10:21:21.117Z,52.85
2022-11-22T10:23:51.945Z,58.75
2022-11-22T10:26:28.760Z,47.88
2022-11-22T10:29:20.980Z,42.33
2022-11-22T10:32:22.519Z,65.30
2022-11-22T10:35:14.756Z,48.85
2022-11-22T10:38:06.257Z,48.85
2022-11-22T10:40:56.373Z,52.10
2022-11-22T10:44:09.581Z,47.33
2022-11-22T10:47:23.536Z,56.05
2022-11-22T10:50:20.489Z,40.70
2022-11-22T10:53:06.698Z,44.45
2022-11-22T10:55:50.906Z,38.72
2022-11-22T10:58:56.658Z,38.28
2022-11-22T11:01:59.537Z,43.83
2022-11-22T11:04:36.532Z,24.02
2022-11-22T11:07:13.812Z,19.23
2022-11-22T11:12:53.859Z,17.75
2022-11-22T11:15:44.040Z,23.67
2022-11-22T11:18:26.771Z,94.95
2022-11-22T11:20:54.626Z,19.08
2022-11-22T11:23:22.240Z,12.95
2022-11-22T11:25:52.373Z,12.33
2022-11-22T11:28:30.898Z,11.60
2022-11-22T11:31:08.600Z,12.20
2022-11-22T11:33:39.966Z,10.07
2022-11-22T11:36:12.145Z,9.60
2022-11-22T11:38:43.488Z,9.88
2022-11-22T11:41:38.668Z,12.88
2022-11-22T11:44:26.864Z,15.20
2022-11-22T11:46:54.857Z,12.63
2022-11-22T11:49:27.578Z,6.85
2022-11-22T11:52:03.767Z,11.52
2022-11-22T11:54:47.383Z,10.93
2022-11-22T11:57:34.004Z,9.38
2022-11-22T12:00:19.265Z,13.15
2022-11-22T12:02:48.147Z,13.73
2022-11-22T12:05:19.179Z,16.88
2022-11-22T12:07:47.957Z,11.02
2022-11-22T12:10:55.950Z,14.45
2022-11-22T12:13:51.736Z,13.20
2022-11-22T12:16:30.350Z,18.38
2022-11-22T12:19:19.088Z,9.77
2022-11-22T12:22:29.554Z,17.95
2022-11-22T12:25:39.528Z,9.25
2022-11-22T12:28:24.735Z,14.70
2022-11-22T12:31:32.471Z,11.27
2022-11-22T12:34:12.847Z,14.65
2022-11-22T12:37:06.656Z,17.80
2022-11-22T12:39:38.085Z,22.67
2022-11-22T12:42:29.584Z,34.65
2022-11-22T12:45:35.149Z,20.13
2022-11-22T12:48:17.211Z,21.33
2022-11-22T12:50:49.586Z,12.55
2022-11-22T12:53:29.325Z,14.10
2022-11-22T12:56:33.326Z,45.83
2022-11-22T12:59:10.819Z,21.92
2022-11-22T13:01:52.584Z,25.27
2022-11-22T13:04:44.022Z,22.02
2022-11-22T13:07:59.247Z,13.57
2022-11-22T13:10:54.361Z,13.80
2022-11-22T13:13:30.343Z,15.82
2022-11-22T13:16:06.376Z,11.43
2022-11-22T13:19:04.850Z,15.90
2022-11-22T13:22:01.864Z,15.57
2022-11-22T13:25:00.643Z,16.95
2022-11-22T13:27:41.100Z,12.32
2022-11-22T13:30:24.079Z,16.90
2022-11-22T13:32:59.357Z,16.70
2022-11-22T13:35:38.061Z,14.68
2022-11-22T13:38:17.695Z,9.23
2022-11-22T13:40:51.423Z,9.52
2022-11-22T13:43:48.080Z,13.00
2022-11-22T13:46:57.760Z,14.30
2022-11-22T13:49:48.950Z,12.27
2022-11-22T13:52:16.813Z,9.60
2022-11-22T13:54:47.436Z,12.70
2022-11-22T13:57:44.279Z,9.35
2022-11-22T14:00:15.955Z,9.32
2022-11-22T14:02:53.350Z,23.80
2022-11-22T14:05:41.274Z,30.23
2022-11-22T14:08:32.532Z,15.80
2022-11-22T14:11:48.098Z,10.00
2022-11-22T14:14:33.052Z,20.65
2022-11-22T14:17:27.139Z,10.38
2022-11-22T14:21:00.499Z,17.30
2022-11-22T14:23:46.640Z,10.05
2022-11-22T14:26:57.595Z,7.75
2022-11-22T14:29:55.609Z,14.55
2022-11-22T14:32:26.168Z,13.00
2022-11-22T14:35:05.933Z,16.52
2022-11-22T14:37:44.917Z,18.63
2022-11-22T14:40:17.436Z,11.85
2022-11-22T14:42:48.833Z,11.60
2022-11-22T14:45:23.994Z,11.32
2022-11-22T14:47:51.914Z,16.83
2022-11-22T14:50:28.285Z,15.70
2022-11-22T14:53:19.029Z,11.70
2022-11-22T14:55:49.214Z,17.67
2022-11-22T14:58:25.789Z,19.48
2022-11-22T15:01:29.782Z,24.23
2022-11-22T15:09:21.753Z,27.52
2022-11-22T15:09:22.473Z,19.85
2022-11-22T15:11:21.705Z,8.82
2022-11-22T15:14:20.537Z,8.63
2022-11-22T15:57:38.140Z,7.95
2022-11-22T16:00:22.488Z,6.35
2022-11-22T16:03:04.262Z,7.00
2022-11-22T16:06:07.591Z,15.70
2022-11-22T16:08:29.428Z,8.75
2022-11-22T16:11:01.434Z,8.13
2022-11-22T16:13:34.274Z,12.98
2022-11-22T16:16:13.953Z,10.05
2022-11-22T16:18:49.638Z,11.57
2022-11-22T16:21:20.113Z,19.92
2022-11-22T16:23:48.373Z,8.73
2022-11-22T16:26:19.177Z,18.38
2022-11-22T16:28:51.504Z,14.18
2022-11-22T16:31:31.506Z,21.38
2022-11-22T16:33:59.794Z,4.80
2022-11-22T16:36:32.285Z,10.30
2022-11-22T16:39:00.301Z,11.35
2022-11-22T16:41:29.583Z,7.90
2022-11-22T16:44:02.593Z,7.10
2022-11-22T16:46:30.524Z,7.70
2022-11-22T16:48:58.634Z,11.00
2022-11-22T16:51:30.465Z,12.38
2022-11-22T16:54:06.250Z,7.57
2022-11-22T16:56:35.846Z,13.48
2022-11-22T16:59:06.879Z,7.60
2022-11-22T17:01:43.637Z,11.90
2022-11-22T17:04:23.599Z,8.00
2022-11-22T17:06:52.029Z,26.13
2022-11-22T17:09:20.099Z,25.10
2022-11-22T17:11:48.626Z,33.17
2022-11-22T17:14:19.471Z,48.75
2022-11-22T17:16:48.133Z,34.38
2022-11-22T17:19:52.870Z,55.05
2022-11-22T17:22:07.136Z,40.50
2022-11-22T17:24:35.830Z,22.75
2022-11-22T17:27:03.740Z,13.70
2022-11-22T17:32:20.009Z,18.63
2022-11-22T17:34:47.695Z,20.17
2022-11-22T17:37:15.596Z,22.67
2022-11-22T17:39:43.319Z,24.48
2022-11-22T17:42:12.238Z,13.38
2022-11-22T17:44:39.890Z,21.67
2022-11-22T17:47:08.829Z,37.83
2022-11-22T17:49:36.378Z,10.88
2022-11-22T17:52:04.131Z,6.73
2022-11-22T17:54:32.294Z,13.88
2022-11-22T17:56:59.865Z,11.48
2022-11-22T17:59:27.413Z,5.20
2022-11-22T18:01:56.876Z,13.77
2022-11-22T18:04:24.637Z,16.27
2022-11-22T18:06:52.174Z,13.18
2022-11-22T18:09:19.806Z,13.02
2022-11-22T18:11:47.754Z,15.77
2022-11-22T18:14:15.442Z,17.75
2022-11-22T18:16:43.035Z,17.23
2022-11-22T18:19:10.840Z,16.07
2022-11-22T18:21:39.102Z,13.30
2022-11-22T18:24:08.496Z,6.03
2022-11-22T18:26:40.621Z,6.30
2022-11-22T18:32:00.517Z,4.45
2022-11-22T18:34:29.217Z,5.28
2022-11-22T18:37:01.943Z,6.25
2022-11-22T18:39:38.360Z,8.05
2022-11-22T18:42:14.481Z,7.30
2022-11-22T18:44:42.343Z,10.05
2022-11-22T18:47:10.124Z,9.80
2022-11-22T18:49:37.881Z,8.25
2022-11-22T18:52:06.276Z,6.53
2022-11-22T18:54:34.265Z,5.28
2022-11-22T18:57:01.904Z,7.45
2022-11-22T18:59:29.579Z,4.45
2022-11-22T19:01:57.502Z,7.97
2022-11-22T19:04:25.103Z,10.90
2022-11-22T19:06:52.625Z,4.47
2022-11-22T19:09:20.185Z,8.83
2022-11-22T19:11:47.757Z,9.98
2022-11-22T19:14:15.461Z,4.50
2022-11-22T19:16:43.000Z,6.07
2022-11-22T19:19:12.162Z,5.57
2022-11-22T19:21:40.385Z,4.43
2022-11-22T19:24:09.060Z,12.93
2022-11-22T19:26:36.840Z,8.35
2022-11-22T19:29:05.043Z,7.93
2022-11-22T19:31:33.773Z,7.63
2022-11-22T19:34:04.194Z,6.47
2022-11-22T19:36:34.385Z,7.63
2022-11-22T19:39:05.589Z,5.90
2022-11-22T19:41:35.059Z,4.38
2022-11-22T19:44:03.644Z,8.88
2022-11-22T19:46:34.432Z,5.20
2022-11-22T19:49:02.462Z,3.75
2022-11-22T19:51:31.379Z,4.10
2022-11-22T19:54:04.702Z,2.95
2022-11-22T19:56:37.283Z,5.60
2022-11-22T19:59:09.829Z,4.20
2022-11-22T20:01:37.787Z,10.75
2022-11-22T20:04:06.848Z,8.15
2022-11-22T20:06:36.645Z,4.65
2022-11-22T20:09:11.349Z,4.90
2022-11-22T20:11:41.353Z,4.25
2022-11-22T20:14:09.854Z,5.38
2022-11-22T20:16:42.855Z,4.43
2022-11-22T20:19:12.629Z,3.33
2022-11-22T20:21:40.635Z,8.68
2022-11-22T20:24:08.788Z,4.38
2022-11-22T20:26:36.459Z,4.82
2022-11-22T20:29:08.433Z,4.53
2022-11-22T20:31:42.977Z,5.18
2022-11-22T20:34:11.105Z,4.97
2022-11-22T20:36:38.659Z,7.72
2022-11-22T20:39:12.404Z,6.57
2022-11-22T20:41:42.489Z,5.68
2022-11-22T20:44:14.615Z,7.60
2022-11-22T20:46:43.045Z,4.35
2022-11-22T20:49:11.034Z,6.25
2022-11-22T20:51:39.875Z,5.43
2022-11-22T20:54:14.533Z,7.18
2022-11-22T20:56:42.045Z,4.57
2022-11-22T20:59:10.414Z,3.42
2022-11-22T21:01:38.108Z,4.10
2022-11-22T21:04:06.386Z,4.88
2022-11-22T21:06:35.063Z,4.97
2022-11-22T21:09:03.399Z,7.80
2022-11-22T21:11:32.032Z,5.22
2022-11-22T21:14:00.451Z,5.43
2022-11-22T21:16:29.731Z,6.38
2022-11-22T21:19:06.918Z,7.72
2022-11-22T21:21:36.405Z,4.47
2022-11-22T21:24:06.220Z,3.80
2022-11-22T21:26:36.604Z,8.10
2022-11-22T21:29:15.966Z,5.93
2022-11-22T21:31:44.184Z,5.55
2022-11-22T21:34:18.356Z,7.10
2022-11-22T21:36:47.518Z,10.95
2022-11-22T21:39:21.335Z,9.65
2022-11-22T21:41:48.992Z,9.68
2022-11-22T21:44:16.644Z,10.17
2022-11-22T21:46:44.886Z,15.15
2022-11-22T21:49:13.880Z,9.32
2022-11-22T21:51:48.352Z,12.98
2022-11-22T21:54:19.549Z,8.30
2022-11-22T21:56:48.126Z,6.93
2022-11-22T21:59:15.703Z,4.93
2022-11-22T22:01:43.761Z,13.33
2022-11-22T22:04:18.330Z,10.77
2022-11-22T22:06:46.418Z,15.38
2022-11-22T22:09:14.487Z,11.90
2022-11-22T22:11:45.663Z,7.82
2022-11-22T22:14:15.157Z,14.40
2022-11-22T22:16:42.873Z,5.80
2022-11-22T22:19:10.632Z,13.93
2022-11-22T22:21:38.368Z,10.07
2022-11-22T22:24:07.022Z,13.90
2022-11-22T22:26:34.585Z,5.88
2022-11-22T22:29:03.822Z,7.83
2022-11-22T22:31:33.426Z,9.63
2022-11-22T22:34:01.033Z,9.63
2022-11-22T22:36:28.733Z,11.87
2022-11-22T22:38:56.446Z,13.15
2022-11-22T22:41:24.815Z,14.57
2022-11-22T22:43:52.385Z,9.33
2022-11-22T22:46:22.847Z,16.85
2022-11-22T22:48:51.914Z,8.40
2022-11-22T22:51:32.409Z,8.73
2022-11-22T22:54:02.675Z,18.83
2022-11-22T22:56:31.798Z,16.55
2022-11-22T22:59:00.960Z,7.85
2022-11-22T23:01:31.237Z,21.42
2022-11-22T23:04:02.040Z,9.73
2022-11-22T23:06:33.469Z,13.55
2022-11-22T23:09:02.110Z,10.20
2022-11-22T23:11:51.774Z,5.38
2022-11-22T23:14:30.328Z,23.50
2022-11-22T23:16:58.599Z,11.32
2022-11-22T23:19:27.437Z,16.48
2022-11-22T23:21:55.958Z,29.58
2022-11-22T23:24:23.616Z,6.53
2022-11-22T23:26:52.359Z,9.20
2022-11-22T23:29:19.956Z,3.35
2022-11-22T23:31:47.658Z,5.27
2022-11-22T23:34:16.338Z,8.70
2022-11-22T23:36:44.454Z,18.02
2022-11-22T23:39:12.387Z,9.13
2022-11-22T23:41:41.580Z,12.48
2022-11-22T23:44:09.153Z,12.63
2022-11-22T23:46:36.739Z,15.33
2022-11-22T23:49:05.418Z,9.03
2022-11-22T23:51:36.372Z,9.02
2022-11-22T23:54:06.439Z,6.32
2022-11-22T23:56:36.390Z,10.10
2022-11-22T23:59:05.568Z,6.90
